Terminal Aerodrome Forecast
Issued by NWS

Current Version | Previous Version | Text Only | Print | Product List | Glossary On
Versions: 1 2 3 4 5 6 7 8 9 10 11 12 13 14 15 16 17 18 19 20 21 22 23 24 25 26 27 28 29 30
000 FTUS41 KBOX 011125 TAFBED TAF KBED 011125Z 0112/0212 12007KT 3SM SHRA BR VCTS OVC035CB FM011400 16007KT 2SM -SHRA BR OVC008 FM011800 19008KT 3SM -SHRA OVC030 FM011900 19008KT 3SM -SHRA BKN060 FM012200 19007KT P6SM VCSH BKN250 FM020000 22006KT P6SM BKN060 FM020400 24004KT P6SM SCT250=

USA.gov is the U.S. government's official web portal to all federal, state and local government web resources and services.